Time,TemperatureF,DewpointF,PressureIn,WindDirection,WindDirectionDegrees,WindSpeedMPH,WindSpeedGustMPH,Humidity,HourlyPrecipIn,Conditions,Clouds,dailyrainin,SoftwareType,DateUTC
2013-09-05 00:42:00,60.0,41.0,-100.00,East,96,3.0,4.0,49,0.00,,,-99.99,,2013-09-05 07:42:00,
2013-09-05 00:52:00,61.0,40.0,-100.00,ENE,64,4.0,6.0,46,0.00,,,-99.99,,2013-09-05 07:52:00,
2013-09-05 01:03:00,61.0,40.0,-100.00,ENE,64,4.0,6.0,46,0.00,,,-99.99,,2013-09-05 08:03:00,
2013-09-05 01:42:00,60.0,39.0,-100.00,East,92,3.0,5.0,45,0.00,,,-99.99,,2013-09-05 08:42:00,
2013-09-05 02:11:00,61.0,39.0,-100.00,ENE,75,3.0,5.0,44,0.00,,,-99.99,,2013-09-05 09:11:00,
2013-09-05 02:22:00,61.0,38.0,-100.00,East,79,3.0,6.0,43,0.00,,,-99.99,,2013-09-05 09:22:00,
2013-09-05 02:43:00,60.0,38.0,-100.00,East,85,3.0,6.0,44,0.00,,,-99.99,,2013-09-05 09:43:00,
2013-09-05 03:12:00,59.0,37.0,-100.00,East,85,3.0,6.0,44,0.00,,,-99.99,,2013-09-05 10:12:00,
2013-09-05 03:42:00,58.0,38.0,-100.00,East,93,2.0,3.0,47,0.00,,,-99.99,,2013-09-05 10:42:00,
2013-09-05 04:21:00,58.0,38.0,-100.00,East,85,4.0,6.0,48,0.00,,,-99.99,,2013-09-05 11:21:00,
2013-09-05 04:42:00,57.0,39.0,-100.00,East,85,4.0,5.0,50,0.00,,,-99.99,,2013-09-05 11:42:00,
2013-09-05 04:51:00,57.0,39.0,-100.00,East,85,3.0,4.0,51,0.00,,,-99.99,,2013-09-05 11:51:00,
2013-09-05 05:01:00,57.0,39.0,-100.00,East,85,3.0,4.0,51,0.00,,,-99.99,,2013-09-05 12:01:00,
2013-09-05 05:21:00,58.0,39.0,-100.00,East,86,4.0,8.0,49,0.00,,,-99.99,,2013-09-05 12:21:00,
2013-09-05 05:42:00,59.0,40.0,-100.00,ENE,75,4.0,7.0,49,0.00,,,-99.99,,2013-09-05 12:42:00,
2013-09-05 05:52:00,59.0,39.0,-100.00,ENE,59,5.0,8.0,48,0.00,,,-99.99,,2013-09-05 12:52:00,
2013-09-05 06:12:00,59.0,40.0,-100.00,NE,51,4.0,6.0,49,0.00,,,-99.99,,2013-09-05 13:12:00,
2013-09-05 06:21:00,59.0,40.0,-100.00,NE,48,5.0,9.0,49,0.00,,,-99.99,,2013-09-05 13:21:00,
2013-09-05 06:42:00,60.0,41.0,-100.00,NE,56,4.0,8.0,49,0.00,,,-99.99,,2013-09-05 13:42:00,
2013-09-05 07:12:00,60.0,41.0,-100.00,ENE,73,5.0,10.0,50,0.00,,,-99.99,,2013-09-05 14:12:00,
2013-09-05 07:42:00,60.0,42.0,-100.00,NNE,16,4.0,6.0,51,0.00,,,-99.99,,2013-09-05 14:42:00,
2013-09-05 08:22:00,59.0,41.0,-100.00,NE,40,3.0,7.0,51,0.00,,,-99.99,,2013-09-05 15:22:00,
2013-09-05 08:44:00,61.0,40.0,-100.00,NE,42,6.0,11.0,45,0.00,,,-99.99,,2013-09-05 15:44:00,
2013-09-05 08:54:00,63.0,40.0,-100.00,NNE,21,3.0,7.0,42,0.00,,,-99.99,,2013-09-05 15:54:00,
2013-09-05 09:03:00,63.0,40.0,-100.00,NNE,21,3.0,7.0,42,0.00,,,-99.99,,2013-09-05 16:03:00,
2013-09-05 09:23:00,64.0,38.0,-100.00,NNW,346,2.0,6.0,38,0.00,,,-99.99,,2013-09-05 16:23:00,
2013-09-05 09:43:00,66.0,38.0,-100.00,NNW,340,4.0,8.0,35,0.00,,,-99.99,,2013-09-05 16:43:00,
2013-09-05 10:12:00,67.0,36.0,-100.00,North,6,6.0,9.0,32,0.00,,,-99.99,,2013-09-05 17:12:00,
2013-09-05 10:43:00,67.0,35.0,-100.00,NNW,332,4.0,7.0,30,0.00,,,-99.99,,2013-09-05 17:43:00,
2013-09-05 11:12:00,69.0,35.0,-100.00,North,356,5.0,9.0,29,0.00,,,-99.99,,2013-09-05 18:12:00,
2013-09-05 11:21:00,67.0,37.0,-100.00,WSW,248,12.0,20.0,33,0.00,,,-99.99,,2013-09-05 18:21:00,
2013-09-05 11:42:00,69.0,39.0,-100.00,NNW,344,5.0,9.0,34,0.00,,,-99.99,,2013-09-05 18:42:00,
2013-09-05 12:21:00,68.0,41.0,-100.00,West,280,9.0,19.0,38,0.00,,,-99.99,,2013-09-05 19:21:00,
2013-09-05 12:42:00,69.0,41.0,-100.00,NW,318,4.0,9.0,36,0.00,,,-99.99,,2013-09-05 19:42:00,
2013-09-05 12:52:00,68.0,39.0,-100.00,West,260,12.0,26.0,35,0.00,,,-99.99,,2013-09-05 19:52:00,
2013-09-05 13:02:00,68.0,39.0,-100.00,West,260,12.0,26.0,35,0.00,,,-99.99,,2013-09-05 20:02:00,
2013-09-05 13:22:00,69.0,39.0,-100.00,West,275,9.0,17.0,33,0.00,,,-99.99,,2013-09-05 20:22:00,
2013-09-05 13:42:00,70.0,39.0,-100.00,West,261,6.0,12.0,32,0.00,,,-99.99,,2013-09-05 20:42:00,
2013-09-05 14:11:00,69.0,39.0,-100.00,West,280,10.0,17.0,34,0.00,,,-99.99,,2013-09-05 21:11:00,
2013-09-05 14:21:00,70.0,40.0,-100.00,NNW,343,5.0,9.0,33,0.00,,,-99.99,,2013-09-05 21:21:00,
2013-09-05 14:44:00,70.0,40.0,-100.00,NW,312,5.0,11.0,34,0.00,,,-99.99,,2013-09-05 21:44:00,
2013-09-05 15:13:00,69.0,38.0,-100.00,West,265,13.0,22.0,32,0.00,,,-99.99,,2013-09-05 22:13:00,
2013-09-05 15:24:00,71.0,39.0,-100.00,West,268,9.0,24.0,31,0.00,,,-99.99,,2013-09-05 22:24:00,
2013-09-05 15:43:00,70.0,37.0,-100.00,WSW,253,11.0,24.0,30,0.00,,,-99.99,,2013-09-05 22:43:00,
2013-09-05 16:22:00,71.0,37.0,-100.00,NW,325,6.0,10.0,29,0.00,,,-99.99,,2013-09-05 23:22:00,
2013-09-05 16:42:00,71.0,38.0,-100.00,WNW,282,9.0,22.0,30,0.00,,,-99.99,,2013-09-05 23:42:00,
2013-09-05 16:53:00,72.0,37.0,-100.00,WSW,257,5.0,14.0,28,0.00,,,-99.99,,2013-09-05 23:53:00,
2013-09-05 17:12:00,71.0,37.0,-100.00,WNW,288,7.0,14.0,29,0.00,,,-99.99,,2013-09-06 00:12:00,
2013-09-05 17:22:00,71.0,37.0,-100.00,NW,320,5.0,11.0,29,0.00,,,-99.99,,2013-09-06 00:22:00,
2013-09-05 17:42:00,71.0,36.0,-100.00,North,354,4.0,9.0,28,0.00,,,-99.99,,2013-09-06 00:42:00,
2013-09-05 17:52:00,71.0,36.0,-100.00,NNW,332,6.0,11.0,28,0.00,,,-99.99,,2013-09-06 00:52:00,
2013-09-05 18:11:00,71.0,36.0,-100.00,WNW,302,4.0,9.0,28,0.00,,,-99.99,,2013-09-06 01:11:00,
2013-09-05 18:22:00,71.0,34.0,-100.00,NW,309,5.0,11.0,26,0.00,,,-99.99,,2013-09-06 01:22:00,
2013-09-05 18:42:00,70.0,36.0,-100.00,North,-999,0.0,0.0,29,0.00,,,-99.99,,2013-09-06 01:42:00,
2013-09-05 19:11:00,69.0,38.0,-100.00,West,270,6.0,14.0,32,0.00,,,-99.99,,2013-09-06 02:11:00,
2013-09-05 19:22:00,68.0,37.0,-100.00,West,261,5.0,11.0,32,0.00,,,-99.99,,2013-09-06 02:22:00,
2013-09-05 19:42:00,66.0,40.0,-100.00,West,261,6.0,14.0,38,0.00,,,-99.99,,2013-09-06 02:42:00,
2013-09-05 20:11:00,64.0,38.0,-100.00,NNE,17,4.0,6.0,38,0.00,,,-99.99,,2013-09-06 03:11:00,
2013-09-05 20:22:00,64.0,38.0,-100.00,NNE,17,4.0,6.0,38,0.00,,,-99.99,,2013-09-06 03:22:00,
2013-09-05 20:44:00,64.0,42.0,-100.00,NNE,18,4.0,8.0,44,0.00,,,-99.99,,2013-09-06 03:44:00,
2013-09-05 21:14:00,62.0,40.0,-100.00,ENE,59,5.0,9.0,44,0.00,,,-99.99,,2013-09-06 04:14:00,
2013-09-05 21:23:00,62.0,40.0,-100.00,NNE,18,4.0,7.0,44,0.00,,,-99.99,,2013-09-06 04:23:00,
2013-09-05 21:44:00,62.0,39.0,-100.00,NE,56,3.0,9.0,42,0.00,,,-99.99,,2013-09-06 04:44:00,
2013-09-05 21:54:00,62.0,39.0,-100.00,ENE,58,5.0,13.0,42,0.00,,,-99.99,,2013-09-06 04:54:00,
2013-09-05 22:12:00,62.0,39.0,-100.00,NNE,27,4.0,9.0,42,0.00,,,-99.99,,2013-09-06 05:12:00,
2013-09-05 22:42:00,62.0,40.0,-100.00,NW,323,2.0,9.0,44,0.00,,,-99.99,,2013-09-06 05:42:00,
2013-09-05 23:11:00,62.0,40.0,-100.00,NE,35,3.0,6.0,44,0.00,,,-99.99,,2013-09-06 06:11:00,
2013-09-05 23:21:00,62.0,40.0,-100.00,NE,38,4.0,9.0,44,0.00,,,-99.99,,2013-09-06 06:21:00,
2013-09-05 23:42:00,61.0,39.0,-100.00,NNE,24,3.0,9.0,44,0.00,,,-99.99,,2013-09-06 06:42:00,